sensor_id;sensor_type;location;lat;lon;timestamp;P1;durP1;ratioP1;P2;durP2;ratioP2
13485;SDS011;6815;59.336;17.998;2023-09-12T00:02:16;19.13;;;14.00;;
13485;SDS011;6815;59.336;17.998;2023-09-12T00:04:42;20.10;;;14.88;;
13485;SDS011;6815;59.336;17.998;2023-09-12T00:07:07;21.30;;;15.38;;
13485;SDS011;6815;59.336;17.998;2023-09-12T00:09:33;23.17;;;16.13;;
13485;SDS011;6815;59.336;17.998;2023-09-12T00:11:58;19.95;;;15.13;;
13485;SDS011;6815;59.336;17.998;2023-09-12T00:14:24;23.85;;;15.32;;
13485;SDS011;6815;59.336;17.998;2023-09-12T00:16:49;20.88;;;15.57;;
13485;SDS011;6815;59.336;17.998;2023-09-12T00:19:17;21.48;;;15.63;;
13485;SDS011;6815;59.336;17.998;2023-09-12T00:21:43;22.42;;;15.88;;
13485;SDS011;6815;59.336;17.998;2023-09-12T00:24:08;22.58;;;15.77;;
13485;SDS011;6815;59.336;17.998;2023-09-12T00:26:33;21.52;;;15.40;;
13485;SDS011;6815;59.336;17.998;2023-09-12T00:28:59;21.35;;;16.15;;
13485;SDS011;6815;59.336;17.998;2023-09-12T00:31:24;18.65;;;15.35;;
13485;SDS011;6815;59.336;17.998;2023-09-12T00:33:50;21.13;;;15.48;;
13485;SDS011;6815;59.336;17.998;2023-09-12T00:36:15;20.45;;;15.82;;
13485;SDS011;6815;59.336;17.998;2023-09-12T00:38:40;23.23;;;16.20;;
13485;SDS011;6815;59.336;17.998;2023-09-12T00:41:06;20.15;;;14.73;;
13485;SDS011;6815;59.336;17.998;2023-09-12T00:43:31;23.50;;;16.83;;
13485;SDS011;6815;59.336;17.998;2023-09-12T00:45:57;22.27;;;16.23;;
13485;SDS011;6815;59.336;17.998;2023-09-12T00:48:22;22.30;;;16.33;;
13485;SDS011;6815;59.336;17.998;2023-09-12T00:50:49;23.92;;;17.27;;
13485;SDS011;6815;59.336;17.998;2023-09-12T00:53:15;21.30;;;17.05;;
13485;SDS011;6815;59.336;17.998;2023-09-12T00:55:42;22.92;;;17.05;;
13485;SDS011;6815;59.336;17.998;2023-09-12T00:58:12;22.52;;;15.77;;
13485;SDS011;6815;59.336;17.998;2023-09-12T01:00:40;22.33;;;16.40;;
13485;SDS011;6815;59.336;17.998;2023-09-12T01:03:05;21.58;;;15.93;;
13485;SDS011;6815;59.336;17.998;2023-09-12T01:05:31;21.40;;;16.45;;
13485;SDS011;6815;59.336;17.998;2023-09-12T01:07:58;22.75;;;15.70;;
13485;SDS011;6815;59.336;17.998;2023-09-12T01:10:25;22.92;;;16.48;;
13485;SDS011;6815;59.336;17.998;2023-09-12T01:12:50;18.50;;;15.32;;
13485;SDS011;6815;59.336;17.998;2023-09-12T01:15:17;19.77;;;14.57;;
13485;SDS011;6815;59.336;17.998;2023-09-12T01:17:43;20.60;;;15.27;;
13485;SDS011;6815;59.336;17.998;2023-09-12T01:20:14;17.90;;;14.43;;
13485;SDS011;6815;59.336;17.998;2023-09-12T01:28:11;19.42;;;14.57;;
13485;SDS011;6815;59.336;17.998;2023-09-12T01:30:40;18.40;;;13.80;;
13485;SDS011;6815;59.336;17.998;2023-09-12T01:33:07;15.70;;;12.20;;
13485;SDS011;6815;59.336;17.998;2023-09-12T01:35:33;17.80;;;13.05;;
13485;SDS011;6815;59.336;17.998;2023-09-12T01:37:58;15.57;;;13.32;;
13485;SDS011;6815;59.336;17.998;2023-09-12T01:40:33;15.00;;;12.70;;
13485;SDS011;6815;59.336;17.998;2023-09-12T01:43:03;13.27;;;11.52;;
13485;SDS011;6815;59.336;17.998;2023-09-12T01:45:31;15.13;;;12.35;;
13485;SDS011;6815;59.336;17.998;2023-09-12T01:47:58;14.00;;;12.20;;
13485;SDS011;6815;59.336;17.998;2023-09-12T01:50:25;14.38;;;12.13;;
13485;SDS011;6815;59.336;17.998;2023-09-12T01:52:52;14.77;;;12.00;;
13485;SDS011;6815;59.336;17.998;2023-09-12T01:55:18;13.23;;;11.82;;
13485;SDS011;6815;59.336;17.998;2023-09-12T01:57:45;13.93;;;12.38;;
13485;SDS011;6815;59.336;17.998;2023-09-12T02:00:12;14.60;;;11.50;;
13485;SDS011;6815;59.336;17.998;2023-09-12T02:02:38;13.63;;;11.82;;
13485;SDS011;6815;59.336;17.998;2023-09-12T02:07:45;12.93;;;11.55;;
13485;SDS011;6815;59.336;17.998;2023-09-12T02:10:11;13.55;;;11.07;;
13485;SDS011;6815;59.336;17.998;2023-09-12T02:12:37;13.65;;;11.27;;
13485;SDS011;6815;59.336;17.998;2023-09-12T02:15:03;12.35;;;10.68;;
13485;SDS011;6815;59.336;17.998;2023-09-12T02:17:29;13.32;;;11.48;;
13485;SDS011;6815;59.336;17.998;2023-09-12T02:19:54;12.60;;;11.27;;
13485;SDS011;6815;59.336;17.998;2023-09-12T02:22:20;14.02;;;11.65;;
13485;SDS011;6815;59.336;17.998;2023-09-12T02:24:45;13.95;;;11.48;;
13485;SDS011;6815;59.336;17.998;2023-09-12T02:27:11;12.25;;;10.68;;
13485;SDS011;6815;59.336;17.998;2023-09-12T02:29:38;12.13;;;10.70;;
13485;SDS011;6815;59.336;17.998;2023-09-12T02:32:04;14.75;;;12.15;;
13485;SDS011;6815;59.336;17.998;2023-09-12T02:34:30;11.73;;;10.57;;
13485;SDS011;6815;59.336;17.998;2023-09-12T02:36:55;12.15;;;10.75;;
13485;SDS011;6815;59.336;17.998;2023-09-12T02:39:21;12.50;;;11.18;;
13485;SDS011;6815;59.336;17.998;2023-09-12T02:41:46;11.77;;;10.55;;
13485;SDS011;6815;59.336;17.998;2023-09-12T02:44:11;11.95;;;10.68;;
13485;SDS011;6815;59.336;17.998;2023-09-12T02:46:37;12.95;;;10.57;;
13485;SDS011;6815;59.336;17.998;2023-09-12T02:49:02;12.50;;;10.93;;
13485;SDS011;6815;59.336;17.998;2023-09-12T02:51:28;11.65;;;10.45;;
13485;SDS011;6815;59.336;17.998;2023-09-12T02:53:54;12.27;;;10.93;;
13485;SDS011;6815;59.336;17.998;2023-09-12T02:56:19;12.52;;;10.80;;
13485;SDS011;6815;59.336;17.998;2023-09-12T02:58:48;12.25;;;10.88;;
13485;SDS011;6815;59.336;17.998;2023-09-12T03:01:17;13.73;;;11.82;;
13485;SDS011;6815;59.336;17.998;2023-09-12T03:03:45;12.88;;;11.52;;
13485;SDS011;6815;59.336;17.998;2023-09-12T03:06:12;12.52;;;10.88;;
13485;SDS011;6815;59.336;17.998;2023-09-12T03:08:39;14.90;;;11.20;;
13485;SDS011;6815;59.336;17.998;2023-09-12T03:11:05;12.55;;;11.25;;
13485;SDS011;6815;59.336;17.998;2023-09-12T03:13:32;12.88;;;11.48;;
13485;SDS011;6815;59.336;17.998;2023-09-12T03:15:58;12.38;;;11.07;;
13485;SDS011;6815;59.336;17.998;2023-09-12T03:18:23;12.27;;;10.98;;
13485;SDS011;6815;59.336;17.998;2023-09-12T03:20:49;12.63;;;11.25;;
13485;SDS011;6815;59.336;17.998;2023-09-12T03:23:14;11.45;;;10.25;;
13485;SDS011;6815;59.336;17.998;2023-09-12T03:25:40;13.00;;;11.27;;
13485;SDS011;6815;59.336;17.998;2023-09-12T03:28:05;12.23;;;10.85;;
13485;SDS011;6815;59.336;17.998;2023-09-12T03:30:35;14.48;;;11.65;;
13485;SDS011;6815;59.336;17.998;2023-09-12T03:33:01;12.10;;;10.80;;
13485;SDS011;6815;59.336;17.998;2023-09-12T03:35:28;12.63;;;10.80;;
13485;SDS011;6815;59.336;17.998;2023-09-12T03:37:54;11.43;;;10.25;;
13485;SDS011;6815;59.336;17.998;2023-09-12T03:40:20;11.75;;;10.55;;
13485;SDS011;6815;59.336;17.998;2023-09-12T03:42:45;12.23;;;10.93;;
13485;SDS011;6815;59.336;17.998;2023-09-12T03:45:11;12.18;;;10.40;;
13485;SDS011;6815;59.336;17.998;2023-09-12T03:47:36;12.40;;;11.20;;
13485;SDS011;6815;59.336;17.998;2023-09-12T03:50:02;12.98;;;11.40;;
13485;SDS011;6815;59.336;17.998;2023-09-12T03:52:28;11.45;;;10.10;;
13485;SDS011;6815;59.336;17.998;2023-09-12T03:54:53;11.35;;;10.23;;
13485;SDS011;6815;59.336;17.998;2023-09-12T03:57:19;10.98;;;9.80;;
13485;SDS011;6815;59.336;17.998;2023-09-12T03:59:44;11.73;;;10.52;;
13485;SDS011;6815;59.336;17.998;2023-09-12T04:02:11;11.68;;;10.40;;
13485;SDS011;6815;59.336;17.998;2023-09-12T04:04:37;11.32;;;9.27;;
13485;SDS011;6815;59.336;17.998;2023-09-12T04:07:03;11.20;;;10.10;;
13485;SDS011;6815;59.336;17.998;2023-09-12T04:09:28;10.63;;;9.63;;
13485;SDS011;6815;59.336;17.998;2023-09-12T04:11:54;10.68;;;9.52;;
13485;SDS011;6815;59.336;17.998;2023-09-12T04:14:20;10.90;;;9.82;;
13485;SDS011;6815;59.336;17.998;2023-09-12T04:16:46;11.60;;;10.40;;
13485;SDS011;6815;59.336;17.998;2023-09-12T04:19:11;9.98;;;9.00;;
13485;SDS011;6815;59.336;17.998;2023-09-12T04:21:38;10.32;;;9.40;;
13485;SDS011;6815;59.336;17.998;2023-09-12T04:24:04;11.25;;;9.38;;
13485;SDS011;6815;59.336;17.998;2023-09-12T04:26:30;11.18;;;10.07;;
13485;SDS011;6815;59.336;17.998;2023-09-12T04:28:55;9.82;;;8.88;;
13485;SDS011;6815;59.336;17.998;2023-09-12T04:31:20;10.88;;;9.88;;
13485;SDS011;6815;59.336;17.998;2023-09-12T04:33:46;10.52;;;9.52;;
13485;SDS011;6815;59.336;17.998;2023-09-12T04:36:11;11.60;;;10.02;;
13485;SDS011;6815;59.336;17.998;2023-09-12T04:38:36;11.73;;;10.52;;
13485;SDS011;6815;59.336;17.998;2023-09-12T04:41:02;10.48;;;9.43;;
13485;SDS011;6815;59.336;17.998;2023-09-12T04:43:32;11.50;;;10.10;;
13485;SDS011;6815;59.336;17.998;2023-09-12T04:45:58;12.13;;;10.00;;
13485;SDS011;6815;59.336;17.998;2023-09-12T04:48:23;11.25;;;9.65;;
13485;SDS011;6815;59.336;17.998;2023-09-12T04:50:49;11.00;;;9.32;;
13485;SDS011;6815;59.336;17.998;2023-09-12T04:53:14;9.95;;;8.95;;
13485;SDS011;6815;59.336;17.998;2023-09-12T04:55:40;10.55;;;9.52;;
13485;SDS011;6815;59.336;17.998;2023-09-12T04:58:05;9.90;;;8.90;;
13485;SDS011;6815;59.336;17.998;2023-09-12T05:00:31;10.48;;;9.48;;
13485;SDS011;6815;59.336;17.998;2023-09-12T05:02:57;10.40;;;9.05;;
13485;SDS011;6815;59.336;17.998;2023-09-12T05:05:22;10.10;;;8.73;;
13485;SDS011;6815;59.336;17.998;2023-09-12T05:07:48;9.77;;;8.80;;
13485;SDS011;6815;59.336;17.998;2023-09-12T05:10:13;11.35;;;8.55;;
13485;SDS011;6815;59.336;17.998;2023-09-12T05:12:39;10.77;;;9.13;;
13485;SDS011;6815;59.336;17.998;2023-09-12T05:15:04;10.13;;;9.07;;
13485;SDS011;6815;59.336;17.998;2023-09-12T05:17:30;10.43;;;9.15;;
13485;SDS011;6815;59.336;17.998;2023-09-12T05:19:55;12.05;;;10.75;;
13485;SDS011;6815;59.336;17.998;2023-09-12T05:22:21;11.45;;;10.30;;
13485;SDS011;6815;59.336;17.998;2023-09-12T05:24:46;12.20;;;10.75;;
13485;SDS011;6815;59.336;17.998;2023-09-12T05:27:12;12.07;;;10.77;;
13485;SDS011;6815;59.336;17.998;2023-09-12T05:29:38;13.25;;;10.73;;
13485;SDS011;6815;59.336;17.998;2023-09-12T05:32:03;10.85;;;9.75;;
13485;SDS011;6815;59.336;17.998;2023-09-12T05:34:29;10.88;;;9.77;;
13485;SDS011;6815;59.336;17.998;2023-09-12T05:36:56;11.27;;;9.48;;
13485;SDS011;6815;59.336;17.998;2023-09-12T05:39:21;10.32;;;9.30;;
13485;SDS011;6815;59.336;17.998;2023-09-12T05:41:48;10.88;;;9.38;;
13485;SDS011;6815;59.336;17.998;2023-09-12T05:44:14;10.73;;;9.30;;
13485;SDS011;6815;59.336;17.998;2023-09-12T05:46:46;10.40;;;9.32;;
13485;SDS011;6815;59.336;17.998;2023-09-12T05:49:13;11.23;;;8.82;;
13485;SDS011;6815;59.336;17.998;2023-09-12T05:51:39;10.38;;;9.15;;
13485;SDS011;6815;59.336;17.998;2023-09-12T05:54:05;12.73;;;11.15;;
13485;SDS011;6815;59.336;17.998;2023-09-12T05:56:31;16.80;;;13.35;;
13485;SDS011;6815;59.336;17.998;2023-09-12T05:58:56;14.35;;;11.73;;
13485;SDS011;6815;59.336;17.998;2023-09-12T06:01:21;17.15;;;12.30;;
13485;SDS011;6815;59.336;17.998;2023-09-12T06:03:47;15.07;;;12.80;;
13485;SDS011;6815;59.336;17.998;2023-09-12T06:06:12;12.07;;;10.40;;
13485;SDS011;6815;59.336;17.998;2023-09-12T06:08:38;11.43;;;10.10;;
13485;SDS011;6815;59.336;17.998;2023-09-12T06:11:03;13.07;;;10.77;;
13485;SDS011;6815;59.336;17.998;2023-09-12T06:13:29;12.15;;;10.77;;
13485;SDS011;6815;59.336;17.998;2023-09-12T06:15:55;14.35;;;11.23;;
13485;SDS011;6815;59.336;17.998;2023-09-12T06:18:20;14.48;;;11.55;;
13485;SDS011;6815;59.336;17.998;2023-09-12T06:20:46;14.30;;;11.65;;
13485;SDS011;6815;59.336;17.998;2023-09-12T06:23:11;13.00;;;11.60;;
13485;SDS011;6815;59.336;17.998;2023-09-12T06:25:37;12.80;;;11.13;;
13485;SDS011;6815;59.336;17.998;2023-09-12T06:28:02;13.23;;;11.82;;
13485;SDS011;6815;59.336;17.998;2023-09-12T06:30:28;13.40;;;11.50;;
13485;SDS011;6815;59.336;17.998;2023-09-12T06:32:53;13.68;;;12.25;;
13485;SDS011;6815;59.336;17.998;2023-09-12T06:35:19;15.07;;;13.48;;
13485;SDS011;6815;59.336;17.998;2023-09-12T06:37:44;18.55;;;14.40;;
13485;SDS011;6815;59.336;17.998;2023-09-12T06:40:09;18.95;;;14.32;;
13485;SDS011;6815;59.336;17.998;2023-09-12T06:42:35;16.40;;;14.13;;
13485;SDS011;6815;59.336;17.998;2023-09-12T06:45:00;18.33;;;14.27;;
13485;SDS011;6815;59.336;17.998;2023-09-12T06:47:26;17.67;;;13.50;;
13485;SDS011;6815;59.336;17.998;2023-09-12T06:49:51;19.15;;;14.57;;
13485;SDS011;6815;59.336;17.998;2023-09-12T06:52:17;15.70;;;12.85;;
13485;SDS011;6815;59.336;17.998;2023-09-12T06:54:42;16.70;;;14.05;;
13485;SDS011;6815;59.336;17.998;2023-09-12T06:57:08;16.70;;;14.20;;
13485;SDS011;6815;59.336;17.998;2023-09-12T06:59:33;17.42;;;14.27;;
13485;SDS011;6815;59.336;17.998;2023-09-12T07:01:59;17.52;;;14.15;;
13485;SDS011;6815;59.336;17.998;2023-09-12T07:04:24;15.13;;;13.10;;
13485;SDS011;6815;59.336;17.998;2023-09-12T07:06:50;18.85;;;13.07;;
13485;SDS011;6815;59.336;17.998;2023-09-12T07:09:16;15.25;;;13.05;;
13485;SDS011;6815;59.336;17.998;2023-09-12T07:11:42;13.50;;;12.10;;
13485;SDS011;6815;59.336;17.998;2023-09-12T07:14:08;14.10;;;12.70;;
13485;SDS011;6815;59.336;17.998;2023-09-12T07:16:35;14.07;;;12.27;;
13485;SDS011;6815;59.336;17.998;2023-09-12T07:19:00;14.57;;;12.70;;
13485;SDS011;6815;59.336;17.998;2023-09-12T07:21:26;14.65;;;12.15;;
13485;SDS011;6815;59.336;17.998;2023-09-12T07:23:51;13.65;;;12.20;;
13485;SDS011;6815;59.336;17.998;2023-09-12T07:26:17;16.02;;;12.43;;
13485;SDS011;6815;59.336;17.998;2023-09-12T07:28:42;15.88;;;14.23;;
13485;SDS011;6815;59.336;17.998;2023-09-12T07:31:08;16.33;;;14.73;;
13485;SDS011;6815;59.336;17.998;2023-09-12T07:33:33;18.73;;;15.35;;
13485;SDS011;6815;59.336;17.998;2023-09-12T07:35:59;17.33;;;14.77;;
13485;SDS011;6815;59.336;17.998;2023-09-12T07:38:25;16.80;;;13.85;;
13485;SDS011;6815;59.336;17.998;2023-09-12T07:40:51;14.95;;;12.27;;
13485;SDS011;6815;59.336;17.998;2023-09-12T07:43:17;14.20;;;11.18;;
13485;SDS011;6815;59.336;17.998;2023-09-12T07:45:42;11.93;;;10.82;;
13485;SDS011;6815;59.336;17.998;2023-09-12T07:48:08;12.98;;;10.63;;
13485;SDS011;6815;59.336;17.998;2023-09-12T07:50:36;16.52;;;12.20;;
13485;SDS011;6815;59.336;17.998;2023-09-12T07:53:03;12.95;;;11.75;;
13485;SDS011;6815;59.336;17.998;2023-09-12T07:55:30;14.23;;;12.25;;
13485;SDS011;6815;59.336;17.998;2023-09-12T07:57:59;13.50;;;12.10;;
13485;SDS011;6815;59.336;17.998;2023-09-12T08:00:25;13.70;;;11.90;;
13485;SDS011;6815;59.336;17.998;2023-09-12T08:02:50;13.38;;;11.10;;
13485;SDS011;6815;59.336;17.998;2023-09-12T08:05:15;16.27;;;11.88;;
13485;SDS011;6815;59.336;17.998;2023-09-12T08:07:41;13.23;;;11.30;;
13485;SDS011;6815;59.336;17.998;2023-09-12T08:10:06;13.25;;;11.80;;
13485;SDS011;6815;59.336;17.998;2023-09-12T08:12:32;13.10;;;11.07;;
13485;SDS011;6815;59.336;17.998;2023-09-12T08:14:57;12.55;;;10.75;;
13485;SDS011;6815;59.336;17.998;2023-09-12T08:17:24;12.25;;;10.45;;
13485;SDS011;6815;59.336;17.998;2023-09-12T08:19:49;11.85;;;9.68;;
13485;SDS011;6815;59.336;17.998;2023-09-12T08:22:15;12.00;;;10.25;;
13485;SDS011;6815;59.336;17.998;2023-09-12T08:24:40;10.50;;;9.32;;
13485;SDS011;6815;59.336;17.998;2023-09-12T08:27:06;12.57;;;8.93;;
13485;SDS011;6815;59.336;17.998;2023-09-12T08:29:32;11.07;;;9.63;;
13485;SDS011;6815;59.336;17.998;2023-09-12T08:31:58;10.90;;;9.75;;
13485;SDS011;6815;59.336;17.998;2023-09-12T08:34:24;12.95;;;9.20;;
13485;SDS011;6815;59.336;17.998;2023-09-12T08:36:49;11.60;;;9.30;;
13485;SDS011;6815;59.336;17.998;2023-09-12T08:39:19;11.80;;;10.18;;
13485;SDS011;6815;59.336;17.998;2023-09-12T08:41:49;11.52;;;10.43;;
13485;SDS011;6815;59.336;17.998;2023-09-12T08:44:15;11.32;;;10.23;;
13485;SDS011;6815;59.336;17.998;2023-09-12T08:46:41;12.32;;;11.18;;
13485;SDS011;6815;59.336;17.998;2023-09-12T08:49:07;12.55;;;11.00;;
13485;SDS011;6815;59.336;17.998;2023-09-12T08:51:34;11.50;;;10.30;;
13485;SDS011;6815;59.336;17.998;2023-09-12T08:54:00;15.32;;;12.48;;
13485;SDS011;6815;59.336;17.998;2023-09-12T08:56:29;12.93;;;11.55;;
13485;SDS011;6815;59.336;17.998;2023-09-12T08:58:55;13.43;;;11.07;;
13485;SDS011;6815;59.336;17.998;2023-09-12T09:01:23;12.43;;;10.85;;
13485;SDS011;6815;59.336;17.998;2023-09-12T09:03:51;12.10;;;11.00;;
13485;SDS011;6815;59.336;17.998;2023-09-12T09:06:16;12.93;;;11.68;;
13485;SDS011;6815;59.336;17.998;2023-09-12T09:08:44;13.68;;;11.25;;
13485;SDS011;6815;59.336;17.998;2023-09-12T09:11:10;13.15;;;11.80;;
13485;SDS011;6815;59.336;17.998;2023-09-12T09:13:36;13.05;;;11.85;;
13485;SDS011;6815;59.336;17.998;2023-09-12T09:16:11;14.13;;;12.68;;
13485;SDS011;6815;59.336;17.998;2023-09-12T09:19:04;14.13;;;12.10;;
13485;SDS011;6815;59.336;17.998;2023-09-12T09:21:35;13.35;;;11.93;;
13485;SDS011;6815;59.336;17.998;2023-09-12T09:24:03;13.55;;;12.20;;
13485;SDS011;6815;59.336;17.998;2023-09-12T09:26:44;14.23;;;12.13;;
13485;SDS011;6815;59.336;17.998;2023-09-12T09:29:13;13.55;;;12.15;;
13485;SDS011;6815;59.336;17.998;2023-09-12T09:31:41;12.48;;;11.27;;
13485;SDS011;6815;59.336;17.998;2023-09-12T09:34:28;13.75;;;11.77;;
13485;SDS011;6815;59.336;17.998;2023-09-12T09:36:55;13.20;;;11.90;;
13485;SDS011;6815;59.336;17.998;2023-09-12T09:39:25;12.80;;;11.50;;
13485;SDS011;6815;59.336;17.998;2023-09-12T09:41:54;11.93;;;10.73;;
13485;SDS011;6815;59.336;17.998;2023-09-12T09:44:22;12.00;;;10.80;;
13485;SDS011;6815;59.336;17.998;2023-09-12T09:46:52;11.65;;;10.13;;
13485;SDS011;6815;59.336;17.998;2023-09-12T09:49:20;10.95;;;9.95;;
13485;SDS011;6815;59.336;17.998;2023-09-12T09:51:46;11.10;;;10.00;;
13485;SDS011;6815;59.336;17.998;2023-09-12T09:54:12;10.68;;;9.68;;
13485;SDS011;6815;59.336;17.998;2023-09-12T09:56:45;11.18;;;9.20;;
13485;SDS011;6815;59.336;17.998;2023-09-12T09:59:15;10.25;;;9.25;;
13485;SDS011;6815;59.336;17.998;2023-09-12T10:01:43;9.98;;;8.98;;
13485;SDS011;6815;59.336;17.998;2023-09-12T10:04:09;9.93;;;8.82;;
13485;SDS011;6815;59.336;17.998;2023-09-12T10:06:36;9.85;;;8.85;;
13485;SDS011;6815;59.336;17.998;2023-09-12T10:09:07;9.18;;;8.25;;
13485;SDS011;6815;59.336;17.998;2023-09-12T10:11:35;10.48;;;9.48;;
13485;SDS011;6815;59.336;17.998;2023-09-12T10:14:03;9.75;;;8.85;;
13485;SDS011;6815;59.336;17.998;2023-09-12T10:16:30;10.43;;;9.15;;
13485;SDS011;6815;59.336;17.998;2023-09-12T10:21:29;10.40;;;9.30;;
13485;SDS011;6815;59.336;17.998;2023-09-12T10:23:58;10.20;;;9.20;;
13485;SDS011;6815;59.336;17.998;2023-09-12T10:26:25;11.13;;;9.85;;
13485;SDS011;6815;59.336;17.998;2023-09-12T10:28:51;11.07;;;9.88;;
13485;SDS011;6815;59.336;17.998;2023-09-12T10:31:17;13.00;;;8.98;;
13485;SDS011;6815;59.336;17.998;2023-09-12T10:33:44;10.00;;;9.00;;
13485;SDS011;6815;59.336;17.998;2023-09-12T10:36:11;10.27;;;9.15;;
13485;SDS011;6815;59.336;17.998;2023-09-12T10:38:40;11.02;;;9.93;;
13485;SDS011;6815;59.336;17.998;2023-09-12T10:41:12;11.15;;;9.77;;
13485;SDS011;6815;59.336;17.998;2023-09-12T10:43:40;11.57;;;10.45;;
13485;SDS011;6815;59.336;17.998;2023-09-12T10:46:07;11.73;;;10.15;;
13485;SDS011;6815;59.336;17.998;2023-09-12T10:48:34;10.30;;;9.40;;
13485;SDS011;6815;59.336;17.998;2023-09-12T10:51:00;12.73;;;10.05;;
13485;SDS011;6815;59.336;17.998;2023-09-12T10:53:28;11.13;;;10.02;;
13485;SDS011;6815;59.336;17.998;2023-09-12T10:56:37;12.35;;;10.90;;
13485;SDS011;6815;59.336;17.998;2023-09-12T11:01:29;13.30;;;11.18;;
13485;SDS011;6815;59.336;17.998;2023-09-12T11:03:58;11.00;;;9.90;;
13485;SDS011;6815;59.336;17.998;2023-09-12T11:06:44;11.73;;;10.52;;
13485;SDS011;6815;59.336;17.998;2023-09-12T11:11:39;12.48;;;11.15;;
13485;SDS011;6815;59.336;17.998;2023-09-12T11:14:05;11.98;;;10.88;;
13485;SDS011;6815;59.336;17.998;2023-09-12T11:16:31;11.95;;;10.85;;
13485;SDS011;6815;59.336;17.998;2023-09-12T11:21:46;12.82;;;11.60;;
13485;SDS011;6815;59.336;17.998;2023-09-12T11:24:13;13.02;;;11.68;;
13485;SDS011;6815;59.336;17.998;2023-09-12T11:26:58;13.07;;;11.32;;
13485;SDS011;6815;59.336;17.998;2023-09-12T11:29:35;12.90;;;11.60;;
13485;SDS011;6815;59.336;17.998;2023-09-12T11:32:02;13.25;;;11.75;;
13485;SDS011;6815;59.336;17.998;2023-09-12T11:34:29;12.98;;;11.43;;
13485;SDS011;6815;59.336;17.998;2023-09-12T11:37:25;14.52;;;12.20;;
13485;SDS011;6815;59.336;17.998;2023-09-12T11:39:52;13.57;;;12.20;;
13485;SDS011;6815;59.336;17.998;2023-09-12T11:42:18;14.35;;;12.93;;
13485;SDS011;6815;59.336;17.998;2023-09-12T11:44:44;15.18;;;12.60;;
13485;SDS011;6815;59.336;17.998;2023-09-12T11:47:12;15.27;;;12.68;;
13485;SDS011;6815;59.336;17.998;2023-09-12T11:49:38;13.65;;;12.35;;
13485;SDS011;6815;59.336;17.998;2023-09-12T11:52:09;14.18;;;12.68;;
13485;SDS011;6815;59.336;17.998;2023-09-12T11:54:40;15.02;;;12.95;;
13485;SDS011;6815;59.336;17.998;2023-09-12T11:57:09;13.95;;;12.55;;
13485;SDS011;6815;59.336;17.998;2023-09-12T11:59:39;15.15;;;13.60;;
13485;SDS011;6815;59.336;17.998;2023-09-12T12:02:06;14.15;;;12.65;;
13485;SDS011;6815;59.336;17.998;2023-09-12T12:04:32;14.60;;;13.15;;
13485;SDS011;6815;59.336;17.998;2023-09-12T12:06:59;14.68;;;13.00;;
13485;SDS011;6815;59.336;17.998;2023-09-12T12:09:26;13.88;;;12.40;;
13485;SDS011;6815;59.336;17.998;2023-09-12T12:11:51;14.45;;;12.85;;
13485;SDS011;6815;59.336;17.998;2023-09-12T12:14:17;17.08;;;13.80;;
13485;SDS011;6815;59.336;17.998;2023-09-12T12:16:44;14.82;;;13.30;;
13485;SDS011;6815;59.336;17.998;2023-09-12T12:19:11;16.65;;;13.13;;
13485;SDS011;6815;59.336;17.998;2023-09-12T12:21:40;15.80;;;14.10;;
13485;SDS011;6815;59.336;17.998;2023-09-12T12:24:10;17.25;;;13.70;;
13485;SDS011;6815;59.336;17.998;2023-09-12T12:26:40;15.68;;;14.00;;
13485;SDS011;6815;59.336;17.998;2023-09-12T12:29:06;14.90;;;13.40;;
13485;SDS011;6815;59.336;17.998;2023-09-12T12:31:32;16.00;;;13.75;;
13485;SDS011;6815;59.336;17.998;2023-09-12T12:33:57;16.20;;;14.38;;
13485;SDS011;6815;59.336;17.998;2023-09-12T12:36:24;17.55;;;14.45;;
13485;SDS011;6815;59.336;17.998;2023-09-12T12:38:50;17.90;;;14.50;;
13485;SDS011;6815;59.336;17.998;2023-09-12T12:41:16;16.63;;;14.88;;
13485;SDS011;6815;59.336;17.998;2023-09-12T12:43:49;17.15;;;14.32;;
13485;SDS011;6815;59.336;17.998;2023-09-12T12:46:18;17.92;;;14.82;;
13485;SDS011;6815;59.336;17.998;2023-09-12T12:48:49;16.77;;;14.60;;
13485;SDS011;6815;59.336;17.998;2023-09-12T12:53:45;18.70;;;15.10;;
13485;SDS011;6815;59.336;17.998;2023-09-12T12:56:14;16.63;;;14.68;;
13485;SDS011;6815;59.336;17.998;2023-09-12T12:58:48;16.88;;;15.07;;
13485;SDS011;6815;59.336;17.998;2023-09-12T13:01:17;17.88;;;15.32;;
13485;SDS011;6815;59.336;17.998;2023-09-12T13:03:44;19.63;;;15.27;;
13485;SDS011;6815;59.336;17.998;2023-09-12T13:06:10;18.15;;;15.57;;
13485;SDS011;6815;59.336;17.998;2023-09-12T13:08:43;16.90;;;15.00;;
13485;SDS011;6815;59.336;17.998;2023-09-12T13:11:10;18.73;;;15.55;;
13485;SDS011;6815;59.336;17.998;2023-09-12T13:13:40;16.83;;;15.02;;
13485;SDS011;6815;59.336;17.998;2023-09-12T13:16:07;17.60;;;15.70;;
13485;SDS011;6815;59.336;17.998;2023-09-12T13:18:37;17.88;;;15.88;;
13485;SDS011;6815;59.336;17.998;2023-09-12T13:21:04;19.92;;;15.68;;
13485;SDS011;6815;59.336;17.998;2023-09-12T13:23:35;17.77;;;15.68;;
13485;SDS011;6815;59.336;17.998;2023-09-12T13:26:02;18.83;;;15.70;;
13485;SDS011;6815;59.336;17.998;2023-09-12T13:28:28;17.70;;;15.38;;
13485;SDS011;6815;59.336;17.998;2023-09-12T13:30:54;17.23;;;15.43;;
13485;SDS011;6815;59.336;17.998;2023-09-12T13:33:20;19.15;;;16.10;;
13485;SDS011;6815;59.336;17.998;2023-09-12T13:35:48;16.88;;;15.07;;
13485;SDS011;6815;59.336;17.998;2023-09-12T13:38:15;18.90;;;16.88;;
13485;SDS011;6815;59.336;17.998;2023-09-12T13:40:42;18.58;;;16.42;;
13485;SDS011;6815;59.336;17.998;2023-09-12T13:43:08;19.00;;;15.00;;
13485;SDS011;6815;59.336;17.998;2023-09-12T13:45:34;18.38;;;16.38;;
13485;SDS011;6815;59.336;17.998;2023-09-12T13:48:00;17.02;;;15.23;;
13485;SDS011;6815;59.336;17.998;2023-09-12T13:50:27;19.33;;;16.75;;
13485;SDS011;6815;59.336;17.998;2023-09-12T13:52:57;18.98;;;16.80;;
13485;SDS011;6815;59.336;17.998;2023-09-12T13:55:29;18.85;;;16.17;;
13485;SDS011;6815;59.336;17.998;2023-09-12T13:57:54;19.02;;;17.00;;
13485;SDS011;6815;59.336;17.998;2023-09-12T14:00:20;17.55;;;14.80;;
13485;SDS011;6815;59.336;17.998;2023-09-12T14:02:45;20.48;;;16.45;;
13485;SDS011;6815;59.336;17.998;2023-09-12T14:05:11;16.90;;;15.10;;
13485;SDS011;6815;59.336;17.998;2023-09-12T14:07:37;19.25;;;15.05;;
13485;SDS011;6815;59.336;17.998;2023-09-12T14:10:05;17.80;;;15.90;;
13485;SDS011;6815;59.336;17.998;2023-09-12T14:12:32;18.55;;;15.85;;
13485;SDS011;6815;59.336;17.998;2023-09-12T14:14:57;19.38;;;15.05;;
13485;SDS011;6815;59.336;17.998;2023-09-12T14:17:22;17.90;;;14.75;;
13485;SDS011;6815;59.336;17.998;2023-09-12T14:19:48;17.63;;;15.70;;
13485;SDS011;6815;59.336;17.998;2023-09-12T14:22:13;18.80;;;14.70;;
13485;SDS011;6815;59.336;17.998;2023-09-12T14:24:39;17.00;;;14.52;;
13485;SDS011;6815;59.336;17.998;2023-09-12T14:27:04;16.48;;;14.70;;
13485;SDS011;6815;59.336;17.998;2023-09-12T14:29:30;15.30;;;13.73;;
13485;SDS011;6815;59.336;17.998;2023-09-12T14:31:55;17.02;;;14.70;;
13485;SDS011;6815;59.336;17.998;2023-09-12T14:34:24;16.58;;;12.95;;
13485;SDS011;6815;59.336;17.998;2023-09-12T14:36:54;17.23;;;14.48;;
13485;SDS011;6815;59.336;17.998;2023-09-12T14:39:23;18.98;;;14.35;;
13485;SDS011;6815;59.336;17.998;2023-09-12T14:41:50;14.93;;;13.15;;
13485;SDS011;6815;59.336;17.998;2023-09-12T14:44:19;17.15;;;13.93;;